sensor_id;sensor_type;location;lat;lon;timestamp;P1;durP1;ratioP1;P2;durP2;ratioP2
52564;SDS011;38460;53.106;7.004;2023-06-14T00:00:31;4.43;;;1.80;;
52564;SDS011;38460;53.106;7.004;2023-06-14T00:02:56;7.47;;;2.30;;
52564;SDS011;38460;53.106;7.004;2023-06-14T00:05:23;3.20;;;1.63;;
52564;SDS011;38460;53.106;7.004;2023-06-14T00:07:49;6.55;;;2.20;;
52564;SDS011;38460;53.106;7.004;2023-06-14T00:10:18;5.35;;;2.00;;
52564;SDS011;38460;53.106;7.004;2023-06-14T00:12:44;5.90;;;2.65;;
52564;SDS011;38460;53.106;7.004;2023-06-14T00:15:10;4.68;;;2.08;;
52564;SDS011;38460;53.106;7.004;2023-06-14T00:17:36;4.63;;;1.58;;
52564;SDS011;38460;53.106;7.004;2023-06-14T00:20:02;6.47;;;2.55;;
52564;SDS011;38460;53.106;7.004;2023-06-14T00:22:32;4.07;;;2.15;;
52564;SDS011;38460;53.106;7.004;2023-06-14T00:24:58;4.90;;;2.30;;
52564;SDS011;38460;53.106;7.004;2023-06-14T00:27:24;6.15;;;2.05;;
52564;SDS011;38460;53.106;7.004;2023-06-14T00:29:51;4.78;;;2.40;;
52564;SDS011;38460;53.106;7.004;2023-06-14T00:32:18;3.95;;;2.10;;
52564;SDS011;38460;53.106;7.004;2023-06-14T00:34:44;4.97;;;2.10;;
52564;SDS011;38460;53.106;7.004;2023-06-14T00:37:09;4.40;;;1.77;;
52564;SDS011;38460;53.106;7.004;2023-06-14T00:39:35;3.33;;;1.90;;
52564;SDS011;38460;53.106;7.004;2023-06-14T00:42:01;4.13;;;2.00;;
52564;SDS011;38460;53.106;7.004;2023-06-14T00:44:27;3.55;;;1.83;;
52564;SDS011;38460;53.106;7.004;2023-06-14T00:46:52;6.72;;;2.20;;
52564;SDS011;38460;53.106;7.004;2023-06-14T00:49:18;3.92;;;1.70;;
52564;SDS011;38460;53.106;7.004;2023-06-14T00:51:45;6.38;;;1.90;;
52564;SDS011;38460;53.106;7.004;2023-06-14T00:54:11;3.75;;;2.30;;
52564;SDS011;38460;53.106;7.004;2023-06-14T00:56:37;5.00;;;1.70;;
52564;SDS011;38460;53.106;7.004;2023-06-14T00:59:03;5.78;;;1.92;;
52564;SDS011;38460;53.106;7.004;2023-06-14T01:01:30;3.30;;;1.80;;
52564;SDS011;38460;53.106;7.004;2023-06-14T01:03:58;5.57;;;1.95;;
52564;SDS011;38460;53.106;7.004;2023-06-14T01:11:37;6.03;;;2.40;;
52564;SDS011;38460;53.106;7.004;2023-06-14T01:14:10;4.50;;;2.00;;
52564;SDS011;38460;53.106;7.004;2023-06-14T01:16:38;5.47;;;2.20;;
52564;SDS011;38460;53.106;7.004;2023-06-14T01:19:05;5.00;;;2.00;;
52564;SDS011;38460;53.106;7.004;2023-06-14T01:21:31;3.45;;;1.95;;
52564;SDS011;38460;53.106;7.004;2023-06-14T01:24:06;3.13;;;1.80;;
52564;SDS011;38460;53.106;7.004;2023-06-14T01:26:34;4.65;;;2.25;;
52564;SDS011;38460;53.106;7.004;2023-06-14T01:29:02;4.90;;;1.95;;
52564;SDS011;38460;53.106;7.004;2023-06-14T01:31:29;4.03;;;2.22;;
52564;SDS011;38460;53.106;7.004;2023-06-14T01:34:05;10.77;;;2.83;;
52564;SDS011;38460;53.106;7.004;2023-06-14T01:36:30;5.22;;;2.25;;
52564;SDS011;38460;53.106;7.004;2023-06-14T01:38:56;4.95;;;2.00;;
52564;SDS011;38460;53.106;7.004;2023-06-14T01:41:24;4.00;;;1.90;;
52564;SDS011;38460;53.106;7.004;2023-06-14T01:43:51;5.70;;;2.58;;
52564;SDS011;38460;53.106;7.004;2023-06-14T01:46:19;4.57;;;2.17;;
52564;SDS011;38460;53.106;7.004;2023-06-14T01:48:45;3.55;;;2.13;;
52564;SDS011;38460;53.106;7.004;2023-06-14T01:51:11;5.20;;;1.88;;
52564;SDS011;38460;53.106;7.004;2023-06-14T01:53:37;5.55;;;2.67;;
52564;SDS011;38460;53.106;7.004;2023-06-14T01:56:02;2.72;;;1.73;;
52564;SDS011;38460;53.106;7.004;2023-06-14T01:58:29;4.32;;;2.33;;
52564;SDS011;38460;53.106;7.004;2023-06-14T02:00:54;4.68;;;2.00;;
52564;SDS011;38460;53.106;7.004;2023-06-14T02:03:21;4.93;;;2.20;;
52564;SDS011;38460;53.106;7.004;2023-06-14T02:05:48;4.80;;;2.58;;
52564;SDS011;38460;53.106;7.004;2023-06-14T02:08:14;4.65;;;2.38;;
52564;SDS011;38460;53.106;7.004;2023-06-14T02:10:40;4.35;;;2.30;;
52564;SDS011;38460;53.106;7.004;2023-06-14T02:13:05;4.10;;;2.10;;
52564;SDS011;38460;53.106;7.004;2023-06-14T02:15:31;4.30;;;1.90;;
52564;SDS011;38460;53.106;7.004;2023-06-14T02:18:02;4.53;;;2.30;;
52564;SDS011;38460;53.106;7.004;2023-06-14T02:20:28;3.95;;;2.17;;
52564;SDS011;38460;53.106;7.004;2023-06-14T02:22:54;4.32;;;2.30;;
52564;SDS011;38460;53.106;7.004;2023-06-14T02:25:20;3.47;;;2.00;;
52564;SDS011;38460;53.106;7.004;2023-06-14T02:27:46;6.20;;;2.40;;
52564;SDS011;38460;53.106;7.004;2023-06-14T02:30:11;5.80;;;2.22;;
52564;SDS011;38460;53.106;7.004;2023-06-14T02:32:37;4.45;;;2.08;;
52564;SDS011;38460;53.106;7.004;2023-06-14T02:35:05;3.95;;;2.10;;
52564;SDS011;38460;53.106;7.004;2023-06-14T02:37:32;3.78;;;2.60;;
52564;SDS011;38460;53.106;7.004;2023-06-14T02:39:58;4.72;;;2.15;;
52564;SDS011;38460;53.106;7.004;2023-06-14T02:42:24;4.22;;;2.28;;
52564;SDS011;38460;53.106;7.004;2023-06-14T02:44:50;5.10;;;2.83;;
52564;SDS011;38460;53.106;7.004;2023-06-14T02:47:19;5.43;;;2.08;;
52564;SDS011;38460;53.106;7.004;2023-06-14T02:49:45;5.47;;;2.40;;
52564;SDS011;38460;53.106;7.004;2023-06-14T02:52:14;5.55;;;2.00;;
52564;SDS011;38460;53.106;7.004;2023-06-14T02:54:40;3.88;;;2.47;;
52564;SDS011;38460;53.106;7.004;2023-06-14T02:57:06;4.97;;;2.10;;
52564;SDS011;38460;53.106;7.004;2023-06-14T02:59:33;4.97;;;2.72;;
52564;SDS011;38460;53.106;7.004;2023-06-14T03:02:00;3.53;;;2.30;;
52564;SDS011;38460;53.106;7.004;2023-06-14T03:04:25;6.15;;;2.80;;
52564;SDS011;38460;53.106;7.004;2023-06-14T03:06:52;3.55;;;2.50;;
52564;SDS011;38460;53.106;7.004;2023-06-14T03:09:19;5.68;;;2.90;;
52564;SDS011;38460;53.106;7.004;2023-06-14T03:11:45;5.55;;;2.13;;
52564;SDS011;38460;53.106;7.004;2023-06-14T03:14:11;3.97;;;2.47;;
52564;SDS011;38460;53.106;7.004;2023-06-14T03:16:38;3.92;;;2.40;;
52564;SDS011;38460;53.106;7.004;2023-06-14T03:19:06;4.47;;;2.70;;
52564;SDS011;38460;53.106;7.004;2023-06-14T03:21:32;7.38;;;2.35;;
52564;SDS011;38460;53.106;7.004;2023-06-14T03:23:59;4.05;;;2.75;;
52564;SDS011;38460;53.106;7.004;2023-06-14T03:26:25;4.18;;;2.40;;
52564;SDS011;38460;53.106;7.004;2023-06-14T03:28:51;4.00;;;2.30;;
52564;SDS011;38460;53.106;7.004;2023-06-14T03:31:17;4.47;;;2.38;;
52564;SDS011;38460;53.106;7.004;2023-06-14T03:33:44;5.63;;;3.00;;
52564;SDS011;38460;53.106;7.004;2023-06-14T03:36:09;4.15;;;2.45;;
52564;SDS011;38460;53.106;7.004;2023-06-14T03:38:35;4.80;;;2.30;;
52564;SDS011;38460;53.106;7.004;2023-06-14T03:41:01;5.90;;;2.90;;
52564;SDS011;38460;53.106;7.004;2023-06-14T03:43:27;5.57;;;2.60;;
52564;SDS011;38460;53.106;7.004;2023-06-14T03:45:55;4.97;;;2.80;;
52564;SDS011;38460;53.106;7.004;2023-06-14T03:48:20;3.67;;;2.53;;
52564;SDS011;38460;53.106;7.004;2023-06-14T03:50:46;5.78;;;2.85;;
52564;SDS011;38460;53.106;7.004;2023-06-14T03:53:12;5.50;;;2.90;;
52564;SDS011;38460;53.106;7.004;2023-06-14T03:55:38;4.82;;;2.35;;
52564;SDS011;38460;53.106;7.004;2023-06-14T03:58:04;4.88;;;2.40;;
52564;SDS011;38460;53.106;7.004;2023-06-14T04:00:30;6.32;;;2.35;;
52564;SDS011;38460;53.106;7.004;2023-06-14T04:02:57;3.80;;;2.45;;
52564;SDS011;38460;53.106;7.004;2023-06-14T04:05:22;5.93;;;2.72;;
52564;SDS011;38460;53.106;7.004;2023-06-14T04:07:51;4.68;;;2.60;;
52564;SDS011;38460;53.106;7.004;2023-06-14T04:10:20;4.35;;;2.58;;
52564;SDS011;38460;53.106;7.004;2023-06-14T04:12:46;5.00;;;2.85;;
52564;SDS011;38460;53.106;7.004;2023-06-14T04:15:12;4.25;;;2.80;;
52564;SDS011;38460;53.106;7.004;2023-06-14T04:17:38;4.53;;;3.25;;
52564;SDS011;38460;53.106;7.004;2023-06-14T04:20:04;5.40;;;3.50;;
52564;SDS011;38460;53.106;7.004;2023-06-14T04:22:32;5.13;;;3.17;;
52564;SDS011;38460;53.106;7.004;2023-06-14T04:24:58;6.57;;;3.17;;
52564;SDS011;38460;53.106;7.004;2023-06-14T04:27:25;5.78;;;3.10;;
52564;SDS011;38460;53.106;7.004;2023-06-14T04:29:52;5.07;;;2.60;;
52564;SDS011;38460;53.106;7.004;2023-06-14T04:32:27;3.78;;;2.65;;
52564;SDS011;38460;53.106;7.004;2023-06-14T04:34:54;7.75;;;3.55;;
52564;SDS011;38460;53.106;7.004;2023-06-14T04:37:21;5.25;;;2.75;;
52564;SDS011;38460;53.106;7.004;2023-06-14T04:39:48;4.70;;;3.50;;
52564;SDS011;38460;53.106;7.004;2023-06-14T04:42:14;5.75;;;3.20;;
52564;SDS011;38460;53.106;7.004;2023-06-14T04:44:41;4.70;;;3.13;;
52564;SDS011;38460;53.106;7.004;2023-06-14T04:47:08;7.13;;;2.90;;
52564;SDS011;38460;53.106;7.004;2023-06-14T04:49:35;4.10;;;2.80;;
52564;SDS011;38460;53.106;7.004;2023-06-14T04:52:00;5.82;;;3.03;;
52564;SDS011;38460;53.106;7.004;2023-06-14T04:54:26;4.55;;;2.70;;
52564;SDS011;38460;53.106;7.004;2023-06-14T04:56:53;6.53;;;3.33;;
52564;SDS011;38460;53.106;7.004;2023-06-14T04:59:20;5.65;;;3.35;;
52564;SDS011;38460;53.106;7.004;2023-06-14T05:01:48;4.97;;;2.83;;
52564;SDS011;38460;53.106;7.004;2023-06-14T05:04:15;5.68;;;3.25;;
52564;SDS011;38460;53.106;7.004;2023-06-14T05:06:41;4.10;;;2.90;;
52564;SDS011;38460;53.106;7.004;2023-06-14T05:09:10;4.70;;;3.42;;
52564;SDS011;38460;53.106;7.004;2023-06-14T05:11:36;6.97;;;3.38;;
52564;SDS011;38460;53.106;7.004;2023-06-14T05:14:02;6.60;;;3.25;;
52564;SDS011;38460;53.106;7.004;2023-06-14T05:16:27;5.38;;;3.22;;
52564;SDS011;38460;53.106;7.004;2023-06-14T05:18:54;6.00;;;3.15;;
52564;SDS011;38460;53.106;7.004;2023-06-14T05:21:20;6.55;;;3.40;;
52564;SDS011;38460;53.106;7.004;2023-06-14T05:23:46;3.85;;;2.75;;
52564;SDS011;38460;53.106;7.004;2023-06-14T05:26:12;4.85;;;3.15;;
52564;SDS011;38460;53.106;7.004;2023-06-14T05:28:38;5.50;;;2.97;;
52564;SDS011;38460;53.106;7.004;2023-06-14T05:31:03;4.57;;;3.10;;
52564;SDS011;38460;53.106;7.004;2023-06-14T05:33:29;6.30;;;3.00;;
52564;SDS011;38460;53.106;7.004;2023-06-14T05:35:55;5.20;;;2.92;;
52564;SDS011;38460;53.106;7.004;2023-06-14T05:38:21;6.70;;;3.33;;
52564;SDS011;38460;53.106;7.004;2023-06-14T05:40:47;6.35;;;2.95;;
52564;SDS011;38460;53.106;7.004;2023-06-14T05:43:12;4.72;;;3.08;;
52564;SDS011;38460;53.106;7.004;2023-06-14T05:45:38;4.32;;;2.80;;
52564;SDS011;38460;53.106;7.004;2023-06-14T05:48:04;4.65;;;2.80;;
52564;SDS011;38460;53.106;7.004;2023-06-14T05:50:30;4.93;;;2.92;;
52564;SDS011;38460;53.106;7.004;2023-06-14T05:52:56;7.50;;;3.45;;
52564;SDS011;38460;53.106;7.004;2023-06-14T05:55:22;6.30;;;3.13;;
52564;SDS011;38460;53.106;7.004;2023-06-14T05:57:47;6.63;;;2.70;;
52564;SDS011;38460;53.106;7.004;2023-06-14T06:00:13;6.13;;;3.15;;
52564;SDS011;38460;53.106;7.004;2023-06-14T06:02:41;4.68;;;2.60;;
52564;SDS011;38460;53.106;7.004;2023-06-14T06:05:11;5.70;;;3.05;;
52564;SDS011;38460;53.106;7.004;2023-06-14T06:07:37;6.43;;;2.92;;
52564;SDS011;38460;53.106;7.004;2023-06-14T06:10:09;6.03;;;3.00;;
52564;SDS011;38460;53.106;7.004;2023-06-14T06:12:35;6.90;;;3.13;;
52564;SDS011;38460;53.106;7.004;2023-06-14T06:15:01;8.15;;;3.63;;
52564;SDS011;38460;53.106;7.004;2023-06-14T06:17:27;5.15;;;2.70;;
52564;SDS011;38460;53.106;7.004;2023-06-14T06:19:53;6.10;;;3.40;;
52564;SDS011;38460;53.106;7.004;2023-06-14T06:22:19;5.70;;;2.70;;
52564;SDS011;38460;53.106;7.004;2023-06-14T06:24:45;5.93;;;3.05;;
52564;SDS011;38460;53.106;7.004;2023-06-14T06:27:12;4.95;;;2.90;;
52564;SDS011;38460;53.106;7.004;2023-06-14T06:29:37;4.78;;;2.65;;
52564;SDS011;38460;53.106;7.004;2023-06-14T06:32:03;7.18;;;2.75;;
52564;SDS011;38460;53.106;7.004;2023-06-14T06:34:30;5.28;;;3.00;;
52564;SDS011;38460;53.106;7.004;2023-06-14T06:36:55;3.70;;;2.33;;
52564;SDS011;38460;53.106;7.004;2023-06-14T06:39:21;5.85;;;2.40;;
52564;SDS011;38460;53.106;7.004;2023-06-14T06:41:47;4.00;;;2.50;;
52564;SDS011;38460;53.106;7.004;2023-06-14T06:44:12;6.15;;;2.63;;
52564;SDS011;38460;53.106;7.004;2023-06-14T06:46:39;5.18;;;2.58;;
52564;SDS011;38460;53.106;7.004;2023-06-14T06:49:09;6.05;;;2.47;;
52564;SDS011;38460;53.106;7.004;2023-06-14T06:51:37;5.47;;;2.77;;
52564;SDS011;38460;53.106;7.004;2023-06-14T06:54:07;3.60;;;2.75;;
52564;SDS011;38460;53.106;7.004;2023-06-14T06:56:33;4.20;;;2.28;;
52564;SDS011;38460;53.106;7.004;2023-06-14T06:59:00;5.15;;;2.63;;
52564;SDS011;38460;53.106;7.004;2023-06-14T07:01:25;6.15;;;2.42;;
52564;SDS011;38460;53.106;7.004;2023-06-14T07:03:54;5.68;;;2.90;;
52564;SDS011;38460;53.106;7.004;2023-06-14T07:06:20;4.68;;;2.45;;
52564;SDS011;38460;53.106;7.004;2023-06-14T07:08:46;3.72;;;2.40;;
52564;SDS011;38460;53.106;7.004;2023-06-14T07:11:15;5.38;;;2.08;;
52564;SDS011;38460;53.106;7.004;2023-06-14T07:13:40;6.78;;;2.95;;
52564;SDS011;38460;53.106;7.004;2023-06-14T07:16:06;6.25;;;2.47;;
52564;SDS011;38460;53.106;7.004;2023-06-14T07:18:32;6.40;;;2.72;;
52564;SDS011;38460;53.106;7.004;2023-06-14T07:20:57;4.47;;;2.53;;
52564;SDS011;38460;53.106;7.004;2023-06-14T07:23:23;4.30;;;2.35;;
52564;SDS011;38460;53.106;7.004;2023-06-14T07:25:49;5.75;;;2.53;;
52564;SDS011;38460;53.106;7.004;2023-06-14T07:28:16;5.55;;;2.30;;
52564;SDS011;38460;53.106;7.004;2023-06-14T07:30:43;5.28;;;2.03;;
52564;SDS011;38460;53.106;7.004;2023-06-14T07:33:08;3.80;;;2.45;;
52564;SDS011;38460;53.106;7.004;2023-06-14T07:35:35;3.95;;;2.55;;
52564;SDS011;38460;53.106;7.004;2023-06-14T07:38:01;3.20;;;2.08;;
52564;SDS011;38460;53.106;7.004;2023-06-14T07:40:26;4.03;;;2.38;;
52564;SDS011;38460;53.106;7.004;2023-06-14T07:42:52;3.50;;;2.33;;
52564;SDS011;38460;53.106;7.004;2023-06-14T07:45:20;6.38;;;2.28;;
52564;SDS011;38460;53.106;7.004;2023-06-14T07:47:45;4.38;;;2.13;;
52564;SDS011;38460;53.106;7.004;2023-06-14T07:50:11;4.75;;;2.25;;
52564;SDS011;38460;53.106;7.004;2023-06-14T07:52:38;3.58;;;2.20;;
52564;SDS011;38460;53.106;7.004;2023-06-14T07:55:04;3.92;;;2.30;;
52564;SDS011;38460;53.106;7.004;2023-06-14T07:57:30;3.42;;;2.00;;
52564;SDS011;38460;53.106;7.004;2023-06-14T07:59:56;3.63;;;1.92;;
52564;SDS011;38460;53.106;7.004;2023-06-14T08:02:22;2.88;;;1.83;;
52564;SDS011;38460;53.106;7.004;2023-06-14T08:04:48;8.32;;;2.38;;
52564;SDS011;38460;53.106;7.004;2023-06-14T08:07:14;4.22;;;2.30;;
52564;SDS011;38460;53.106;7.004;2023-06-14T08:09:40;6.50;;;2.50;;
52564;SDS011;38460;53.106;7.004;2023-06-14T08:12:06;4.40;;;2.28;;
52564;SDS011;38460;53.106;7.004;2023-06-14T08:14:34;6.82;;;2.20;;
52564;SDS011;38460;53.106;7.004;2023-06-14T08:17:00;3.65;;;2.30;;
52564;SDS011;38460;53.106;7.004;2023-06-14T08:19:26;3.72;;;1.88;;
52564;SDS011;38460;53.106;7.004;2023-06-14T08:21:52;3.22;;;2.13;;
52564;SDS011;38460;53.106;7.004;2023-06-14T08:24:20;3.63;;;2.17;;
52564;SDS011;38460;53.106;7.004;2023-06-14T08:26:49;3.60;;;1.95;;
52564;SDS011;38460;53.106;7.004;2023-06-14T08:29:16;5.97;;;2.05;;
52564;SDS011;38460;53.106;7.004;2023-06-14T08:31:41;4.03;;;2.10;;
52564;SDS011;38460;53.106;7.004;2023-06-14T08:34:07;4.75;;;2.33;;
52564;SDS011;38460;53.106;7.004;2023-06-14T08:36:34;5.55;;;2.30;;
52564;SDS011;38460;53.106;7.004;2023-06-14T08:39:01;4.50;;;2.30;;
52564;SDS011;38460;53.106;7.004;2023-06-14T08:41:27;5.53;;;1.95;;
52564;SDS011;38460;53.106;7.004;2023-06-14T08:43:54;9.27;;;2.63;;
52564;SDS011;38460;53.106;7.004;2023-06-14T08:46:21;5.47;;;2.40;;
52564;SDS011;38460;53.106;7.004;2023-06-14T08:48:52;4.57;;;1.83;;
52564;SDS011;38460;53.106;7.004;2023-06-14T08:51:22;4.45;;;2.13;;
52564;SDS011;38460;53.106;7.004;2023-06-14T08:53:53;4.53;;;2.20;;
52564;SDS011;38460;53.106;7.004;2023-06-14T08:56:26;5.45;;;2.95;;
52564;SDS011;38460;53.106;7.004;2023-06-14T08:58:55;4.82;;;2.05;;
52564;SDS011;38460;53.106;7.004;2023-06-14T09:01:22;3.38;;;2.10;;
52564;SDS011;38460;53.106;7.004;2023-06-14T09:03:49;4.13;;;2.58;;
52564;SDS011;38460;53.106;7.004;2023-06-14T09:06:15;12.55;;;2.15;;
52564;SDS011;38460;53.106;7.004;2023-06-14T09:08:41;5.40;;;1.83;;
52564;SDS011;38460;53.106;7.004;2023-06-14T09:11:10;7.22;;;2.60;;
52564;SDS011;38460;53.106;7.004;2023-06-14T09:13:37;4.22;;;2.10;;
52564;SDS011;38460;53.106;7.004;2023-06-14T09:16:04;4.63;;;2.08;;
52564;SDS011;38460;53.106;7.004;2023-06-14T09:18:34;4.80;;;1.90;;
52564;SDS011;38460;53.106;7.004;2023-06-14T09:21:00;5.43;;;2.00;;
52564;SDS011;38460;53.106;7.004;2023-06-14T09:23:26;8.15;;;2.50;;
52564;SDS011;38460;53.106;7.004;2023-06-14T09:25:51;4.32;;;2.10;;
52564;SDS011;38460;53.106;7.004;2023-06-14T09:28:17;3.08;;;1.90;;
52564;SDS011;38460;53.106;7.004;2023-06-14T09:30:45;4.82;;;2.40;;
52564;SDS011;38460;53.106;7.004;2023-06-14T09:33:11;3.70;;;1.88;;
52564;SDS011;38460;53.106;7.004;2023-06-14T09:35:44;5.53;;;2.00;;
52564;SDS011;38460;53.106;7.004;2023-06-14T09:38:11;4.45;;;2.53;;
52564;SDS011;38460;53.106;7.004;2023-06-14T09:40:37;5.40;;;1.90;;
52564;SDS011;38460;53.106;7.004;2023-06-14T09:43:06;4.15;;;2.05;;
52564;SDS011;38460;53.106;7.004;2023-06-14T09:45:35;4.22;;;2.20;;
52564;SDS011;38460;53.106;7.004;2023-06-14T09:48:01;2.92;;;2.00;;
52564;SDS011;38460;53.106;7.004;2023-06-14T09:50:28;3.35;;;1.80;;
52564;SDS011;38460;53.106;7.004;2023-06-14T09:52:53;2.97;;;1.83;;
52564;SDS011;38460;53.106;7.004;2023-06-14T09:55:27;2.92;;;1.50;;
52564;SDS011;38460;53.106;7.004;2023-06-14T09:57:55;7.18;;;1.80;;
52564;SDS011;38460;53.106;7.004;2023-06-14T10:00:22;3.45;;;1.70;;
52564;SDS011;38460;53.106;7.004;2023-06-14T10:02:50;2.83;;;1.40;;
52564;SDS011;38460;53.106;7.004;2023-06-14T10:05:19;3.60;;;1.27;;
52564;SDS011;38460;53.106;7.004;2023-06-14T10:07:48;4.40;;;1.60;;
52564;SDS011;38460;53.106;7.004;2023-06-14T10:10:24;4.38;;;1.73;;
52564;SDS011;38460;53.106;7.004;2023-06-14T10:12:50;2.40;;;1.42;;
52564;SDS011;38460;53.106;7.004;2023-06-14T10:18:18;4.93;;;1.42;;
52564;SDS011;38460;53.106;7.004;2023-06-14T10:23:41;2.63;;;1.27;;
52564;SDS011;38460;53.106;7.004;2023-06-14T10:26:13;4.20;;;1.60;;
52564;SDS011;38460;53.106;7.004;2023-06-14T10:29:00;3.83;;;1.52;;
52564;SDS011;38460;53.106;7.004;2023-06-14T10:31:44;3.42;;;1.40;;
52564;SDS011;38460;53.106;7.004;2023-06-14T10:34:12;4.68;;;1.52;;
52564;SDS011;38460;53.106;7.004;2023-06-14T10:37:00;2.42;;;1.55;;
52564;SDS011;38460;53.106;7.004;2023-06-14T10:39:28;3.72;;;1.63;;
52564;SDS011;38460;53.106;7.004;2023-06-14T10:41:54;5.32;;;1.67;;
52564;SDS011;38460;53.106;7.004;2023-06-14T10:46:47;3.78;;;1.70;;
52564;SDS011;38460;53.106;7.004;2023-06-14T10:49:17;1.95;;;1.30;;
52564;SDS011;38460;53.106;7.004;2023-06-14T10:51:44;9.40;;;1.85;;
52564;SDS011;38460;53.106;7.004;2023-06-14T10:54:20;4.05;;;1.42;;
52564;SDS011;38460;53.106;7.004;2023-06-14T10:56:51;3.40;;;1.40;;
52564;SDS011;38460;53.106;7.004;2023-06-14T10:59:18;7.57;;;1.73;;
52564;SDS011;38460;53.106;7.004;2023-06-14T11:02:13;3.85;;;1.55;;
52564;SDS011;38460;53.106;7.004;2023-06-14T11:04:50;4.13;;;1.50;;
52564;SDS011;38460;53.106;7.004;2023-06-14T11:10:36;4.05;;;1.67;;
52564;SDS011;38460;53.106;7.004;2023-06-14T11:13:07;4.53;;;1.70;;
52564;SDS011;38460;53.106;7.004;2023-06-14T11:15:34;3.03;;;1.50;;
52564;SDS011;38460;53.106;7.004;2023-06-14T11:18:01;4.78;;;1.85;;
52564;SDS011;38460;53.106;7.004;2023-06-14T11:20:32;3.95;;;2.08;;
52564;SDS011;38460;53.106;7.004;2023-06-14T11:23:00;4.53;;;1.88;;
52564;SDS011;38460;53.106;7.004;2023-06-14T11:25:26;3.72;;;1.30;;
52564;SDS011;38460;53.106;7.004;2023-06-14T11:27:56;4.13;;;1.88;;
52564;SDS011;38460;53.106;7.004;2023-06-14T11:30:22;3.30;;;1.65;;
52564;SDS011;38460;53.106;7.004;2023-06-14T11:32:49;7.72;;;1.63;;
52564;SDS011;38460;53.106;7.004;2023-06-14T11:35:17;4.80;;;1.52;;
52564;SDS011;38460;53.106;7.004;2023-06-14T11:37:43;3.60;;;1.75;;
52564;SDS011;38460;53.106;7.004;2023-06-14T11:40:10;3.60;;;1.90;;
52564;SDS011;38460;53.106;7.004;2023-06-14T11:42:37;5.65;;;1.70;;
52564;SDS011;38460;53.106;7.004;2023-06-14T11:45:09;4.07;;;1.73;;
52564;SDS011;38460;53.106;7.004;2023-06-14T11:47:36;2.53;;;1.60;;
52564;SDS011;38460;53.106;7.004;2023-06-14T11:50:04;4.65;;;1.60;;
52564;SDS011;38460;53.106;7.004;2023-06-14T11:52:31;3.25;;;1.60;;
52564;SDS011;38460;53.106;7.004;2023-06-14T11:54:58;3.67;;;1.88;;
52564;SDS011;38460;53.106;7.004;2023-06-14T11:57:24;3.22;;;1.60;;
52564;SDS011;38460;53.106;7.004;2023-06-14T11:59:50;3.50;;;1.83;;
52564;SDS011;38460;53.106;7.004;2023-06-14T12:02:18;5.18;;;1.88;;
52564;SDS011;38460;53.106;7.004;2023-06-14T12:04:48;4.30;;;1.60;;
52564;SDS011;38460;53.106;7.004;2023-06-14T12:07:14;3.78;;;1.52;;
52564;SDS011;38460;53.106;7.004;2023-06-14T12:09:42;3.17;;;1.60;;
52564;SDS011;38460;53.106;7.004;2023-06-14T12:12:34;2.75;;;1.40;;
52564;SDS011;38460;53.106;7.004;2023-06-14T12:15:02;4.57;;;1.77;;
52564;SDS011;38460;53.106;7.004;2023-06-14T12:17:33;4.35;;;2.15;;
52564;SDS011;38460;53.106;7.004;2023-06-14T12:20:08;3.60;;;2.05;;
52564;SDS011;38460;53.106;7.004;2023-06-14T12:22:51;4.05;;;1.83;;
52564;SDS011;38460;53.106;7.004;2023-06-14T12:25:28;3.47;;;1.95;;
52564;SDS011;38460;53.106;7.004;2023-06-14T12:28:03;4.85;;;2.00;;
52564;SDS011;38460;53.106;7.004;2023-06-14T12:30:31;5.45;;;1.90;;
52564;SDS011;38460;53.106;7.004;2023-06-14T12:32:57;5.22;;;1.70;;
52564;SDS011;38460;53.106;7.004;2023-06-14T12:35:23;2.55;;;1.50;;
52564;SDS011;38460;53.106;7.004;2023-06-14T12:37:49;2.75;;;1.60;;
52564;SDS011;38460;53.106;7.004;2023-06-14T12:40:15;4.55;;;2.10;;
52564;SDS011;38460;53.106;7.004;2023-06-14T12:42:41;4.20;;;1.80;;
52564;SDS011;38460;53.106;7.004;2023-06-14T12:45:07;3.55;;;1.70;;
52564;SDS011;38460;53.106;7.004;2023-06-14T12:47:33;4.97;;;1.90;;
52564;SDS011;38460;53.106;7.004;2023-06-14T12:49:59;4.60;;;2.10;;
52564;SDS011;38460;53.106;7.004;2023-06-14T12:52:26;3.03;;;1.85;;
52564;SDS011;38460;53.106;7.004;2023-06-14T12:54:52;4.22;;;2.08;;
52564;SDS011;38460;53.106;7.004;2023-06-14T12:57:17;2.92;;;1.83;;
52564;SDS011;38460;53.106;7.004;2023-06-14T12:59:43;3.72;;;1.90;;
52564;SDS011;38460;53.106;7.004;2023-06-14T13:02:16;6.20;;;2.13;;
52564;SDS011;38460;53.106;7.004;2023-06-14T13:04:43;5.30;;;2.28;;
52564;SDS011;38460;53.106;7.004;2023-06-14T13:07:09;2.85;;;1.77;;
52564;SDS011;38460;53.106;7.004;2023-06-14T13:09:39;3.37;;;1.93;;
52564;SDS011;38460;53.106;7.004;2023-06-14T13:12:06;5.72;;;1.95;;
52564;SDS011;38460;53.106;7.004;2023-06-14T13:14:32;4.10;;;2.05;;
52564;SDS011;38460;53.106;7.004;2023-06-14T13:16:58;4.65;;;1.70;;
52564;SDS011;38460;53.106;7.004;2023-06-14T13:19:23;4.57;;;1.85;;
52564;SDS011;38460;53.106;7.004;2023-06-14T13:21:49;4.70;;;2.17;;
52564;SDS011;38460;53.106;7.004;2023-06-14T13:24:15;4.90;;;1.90;;
52564;SDS011;38460;53.106;7.004;2023-06-14T13:26:41;6.55;;;2.65;;
52564;SDS011;38460;53.106;7.004;2023-06-14T13:29:06;2.67;;;1.58;;
52564;SDS011;38460;53.106;7.004;2023-06-14T13:31:32;3.40;;;2.30;;
52564;SDS011;38460;53.106;7.004;2023-06-14T13:33:58;5.43;;;2.45;;
52564;SDS011;38460;53.106;7.004;2023-06-14T13:36:24;3.47;;;1.92;;
52564;SDS011;38460;53.106;7.004;2023-06-14T13:38:50;3.25;;;2.00;;
52564;SDS011;38460;53.106;7.004;2023-06-14T13:41:17;4.32;;;1.80;;
52564;SDS011;38460;53.106;7.004;2023-06-14T13:43:43;2.50;;;1.77;;
52564;SDS011;38460;53.106;7.004;2023-06-14T13:46:09;3.65;;;1.83;;
52564;SDS011;38460;53.106;7.004;2023-06-14T13:48:34;4.25;;;1.80;;
52564;SDS011;38460;53.106;7.004;2023-06-14T13:51:00;3.08;;;1.90;;
52564;SDS011;38460;53.106;7.004;2023-06-14T13:53:28;3.03;;;1.60;;
52564;SDS011;38460;53.106;7.004;2023-06-14T13:55:54;3.42;;;1.77;;
52564;SDS011;38460;53.106;7.004;2023-06-14T13:58:20;4.22;;;1.85;;
52564;SDS011;38460;53.106;7.004;2023-06-14T14:00:46;3.10;;;1.88;;
52564;SDS011;38460;53.106;7.004;2023-06-14T14:03:12;3.55;;;1.65;;
52564;SDS011;38460;53.106;7.004;2023-06-14T14:05:38;3.45;;;2.10;;
52564;SDS011;38460;53.106;7.004;2023-06-14T14:08:03;3.85;;;1.92;;
52564;SDS011;38460;53.106;7.004;2023-06-14T14:10:29;5.28;;;2.03;;
52564;SDS011;38460;53.106;7.004;2023-06-14T14:12:55;3.30;;;2.20;;
52564;SDS011;38460;53.106;7.004;2023-06-14T14:15:21;3.05;;;1.92;;
52564;SDS011;38460;53.106;7.004;2023-06-14T14:17:47;4.82;;;2.30;;
52564;SDS011;38460;53.106;7.004;2023-06-14T14:20:13;4.68;;;2.10;;
52564;SDS011;38460;53.106;7.004;2023-06-14T14:22:43;4.57;;;2.15;;
52564;SDS011;38460;53.106;7.004;2023-06-14T14:25:09;3.60;;;2.00;;
52564;SDS011;38460;53.106;7.004;2023-06-14T14:27:35;3.47;;;1.98;;
52564;SDS011;38460;53.106;7.004;2023-06-14T14:30:02;3.00;;;1.83;;
52564;SDS011;38460;53.106;7.004;2023-06-14T14:32:29;3.35;;;1.90;;
52564;SDS011;38460;53.106;7.004;2023-06-14T14:34:55;3.33;;;2.25;;
52564;SDS011;38460;53.106;7.004;2023-06-14T14:37:21;4.07;;;2.10;;
52564;SDS011;38460;53.106;7.004;2023-06-14T14:39:46;3.15;;;1.90;;
52564;SDS011;38460;53.106;7.004;2023-06-14T14:42:12;2.67;;;1.90;;
52564;SDS011;38460;53.106;7.004;2023-06-14T14:44:38;2.72;;;1.83;;
52564;SDS011;38460;53.106;7.004;2023-06-14T14:47:04;3.38;;;2.08;;
52564;SDS011;38460;53.106;7.004;2023-06-14T14:49:31;3.97;;;1.90;;
52564;SDS011;38460;53.106;7.004;2023-06-14T14:51:57;6.43;;;2.55;;
52564;SDS011;38460;53.106;7.004;2023-06-14T14:54:23;5.18;;;2.20;;
52564;SDS011;38460;53.106;7.004;2023-06-14T14:56:50;4.00;;;1.98;;
52564;SDS011;38460;53.106;7.004;2023-06-14T14:59:16;2.92;;;2.05;;
52564;SDS011;38460;53.106;7.004;2023-06-14T15:01:43;5.18;;;2.22;;
52564;SDS011;38460;53.106;7.004;2023-06-14T15:04:10;3.83;;;2.20;;